Time;durP1;ratioP1;P1;durP2;ratioP2;P2;SDS_P1;SDS_P2;PMS_P1;PMS_P2;Temp;Humidity;BMP_temperature;BMP_pressure;BME280_temperature;BME280_humidity;BME280_pressure;Samples;Min_cycle;Max_cycle;Signal;HPM_P1;HPM_P2
2022/02/02 00:01:18;;;;;;;0.30;0.20;;;4.80;99.90;;;;;;5013932;28;20519;-79
2022/02/02 00:03:50;;;;;;;0.30;0.30;;;4.80;99.90;;;;;;5013411;28;20440;-79
2022/02/02 00:06:21;;;;;;;0.30;0.20;;;4.90;99.90;;;;;;5013260;28;20563;-79
2022/02/02 00:08:55;;;;;;;0.60;0.60;;;4.90;99.90;;;;;;5013576;28;20436;-79
2022/02/02 00:12:05;;;;;;;0.40;0.30;;;5.00;99.90;;;;;;5014665;28;20439;-79
2022/02/02 00:14:44;;;;;;;0.30;0.20;;;5.00;99.90;;;;;;5016608;28;20470;-80
2022/02/02 00:17:15;;;;;;;0.30;0.30;;;5.00;99.90;;;;;;5017023;28;20481;-80
2022/02/02 00:19:49;;;;;;;0.30;0.30;;;5.00;99.90;;;;;;5017424;28;20471;-80
2022/02/02 00:22:19;;;;;;;0.30;0.30;;;5.00;99.90;;;;;;5017025;28;20434;-80
2022/02/02 00:25:05;;;;;;;0.30;0.20;;;5.00;99.90;;;;;;5016879;28;20458;-78
2022/02/02 00:27:35;;;;;;;0.30;0.30;;;5.00;99.90;;;;;;5016951;28;20447;-78
2022/02/02 00:30:04;;;;;;;0.30;0.20;;;5.00;99.90;;;;;;5016839;28;20460;-78
2022/02/02 00:32:57;;;;;;;0.30;0.30;;;5.00;99.90;;;;;;5016757;28;20463;-79
2022/02/02 00:35:28;;;;;;;0.30;0.30;;;4.90;99.90;;;;;;5016622;28;20507;-80
2022/02/02 00:37:55;;;;;;;0.30;0.20;;;4.80;99.90;;;;;;5016949;28;20471;-80
2022/02/02 00:40:22;;;;;;;0.30;0.30;;;4.80;99.90;;;;;;5016283;28;20978;-80
2022/02/02 00:42:51;;;;;;;0.30;0.30;;;4.90;99.90;;;;;;5016111;28;20990;-80
2022/02/02 00:45:19;;;;;;;0.30;0.20;;;4.90;99.90;;;;;;5016646;28;20452;-80
2022/02/02 00:47:50;;;;;;;0.30;0.20;;;4.90;99.90;;;;;;5016453;28;20463;-78
2022/02/02 00:50:17;;;;;;;0.30;0.30;;;4.90;99.90;;;;;;5016342;28;20892;-78
2022/02/02 00:52:49;;;;;;;0.30;0.30;;;5.00;99.90;;;;;;5016406;28;20443;-78
2022/02/02 00:55:16;;;;;;;0.30;0.30;;;5.00;99.90;;;;;;5016512;28;20795;-78
2022/02/02 00:57:43;;;;;;;0.30;0.20;;;5.00;99.90;;;;;;5015956;28;20448;-78
2022/02/02 01:00:12;;;;;;;0.30;0.30;;;5.00;99.90;;;;;;5015791;28;20483;-78
2022/02/02 01:02:39;;;;;;;0.30;0.20;;;5.00;99.90;;;;;;5016218;28;20451;-78
2022/02/02 01:05:06;;;;;;;0.30;0.30;;;5.00;99.90;;;;;;5015723;28;20444;-78
2022/02/02 01:07:49;;;;;;;0.30;0.20;;;5.00;99.90;;;;;;5016107;28;20443;-78
2022/02/02 01:10:21;;;;;;;0.30;0.20;;;5.00;99.90;;;;;;5016085;28;20470;-78
2022/02/02 01:12:54;;;;;;;0.30;0.20;;;4.90;99.90;;;;;;5016011;28;20462;-78
2022/02/02 01:18:17;;;;;;;0.30;0.20;;;5.00;99.90;;;;;;5015983;28;20907;-80
2022/02/02 01:21:00;;;;;;;0.30;0.30;;;5.00;99.90;;;;;;5015760;28;20480;-80
2022/02/02 01:28:59;;;;;;;0.30;0.30;;;4.90;99.90;;;;;;5015266;28;20438;-80
2022/02/02 01:31:27;;;;;;;0.53;0.53;;;4.90;99.90;;;;;;5015406;28;20450;-80
2022/02/02 01:33:54;;;;;;;0.30;0.30;;;4.90;99.90;;;;;;5015609;28;20447;-80
2022/02/02 01:36:21;;;;;;;0.30;0.20;;;4.80;99.90;;;;;;5015494;28;20459;-80
2022/02/02 01:38:51;;;;;;;0.30;0.30;;;4.80;99.90;;;;;;5015247;28;20438;-80
2022/02/02 01:41:27;;;;;;;0.30;0.20;;;4.80;99.90;;;;;;5015172;28;20526;-78
2022/02/02 01:44:01;;;;;;;0.30;0.20;;;4.80;99.90;;;;;;5015464;28;20439;-78
2022/02/02 01:46:33;;;;;;;0.30;0.20;;;4.80;99.90;;;;;;5015065;28;20980;-78
2022/02/02 01:49:29;;;;;;;0.30;0.20;;;4.80;99.90;;;;;;5015034;28;20436;-78
2022/02/02 01:52:13;;;;;;;0.30;0.20;;;4.80;99.90;;;;;;5014865;28;20543;-78
2022/02/02 01:54:54;;;;;;;0.30;0.30;;;4.80;99.90;;;;;;5015266;28;20459;-78
2022/02/02 01:57:43;;;;;;;0.30;0.30;;;4.90;99.90;;;;;;5014963;28;20888;-78
2022/02/02 02:00:11;;;;;;;0.30;0.30;;;4.90;99.90;;;;;;5015043;28;20502;-78
2022/02/02 02:02:40;;;;;;;0.30;0.30;;;5.00;99.90;;;;;;5015545;28;20459;-78
2022/02/02 02:05:07;;;;;;;0.30;0.23;;;5.00;99.90;;;;;;5014706;28;20919;-78
2022/02/02 02:07:36;;;;;;;0.30;0.30;;;5.00;99.90;;;;;;5014930;28;20452;-78
2022/02/02 02:10:03;;;;;;;0.30;0.30;;;5.00;99.90;;;;;;5014910;28;20444;-78
2022/02/02 02:12:37;;;;;;;0.30;0.20;;;5.00;99.90;;;;;;5014855;28;20459;-78
2022/02/02 02:15:07;;;;;;;0.30;0.20;;;5.00;99.90;;;;;;5014459;28;20475;-78
2022/02/02 02:17:34;;;;;;;0.30;0.30;;;5.10;99.90;;;;;;5014763;28;20455;-78
2022/02/02 02:20:02;;;;;;;0.30;0.27;;;5.10;99.90;;;;;;5014650;28;20491;-78
2022/02/02 02:22:35;;;;;;;0.30;0.30;;;5.10;99.90;;;;;;5014786;28;20451;-78
2022/02/02 02:25:01;;;;;;;0.30;0.20;;;5.20;99.90;;;;;;5015714;28;20555;-78
2022/02/02 02:27:28;;;;;;;0.30;0.20;;;5.10;99.90;;;;;;5014622;28;20447;-78
2022/02/02 02:30:05;;;;;;;0.30;0.20;;;5.10;99.90;;;;;;5014295;28;20444;-79
2022/02/02 02:38:41;;;;;;;0.30;0.27;;;5.30;99.90;;;;;;5132385;27;20851;-78
2022/02/02 02:57:43;;;;;;;0.30;0.20;;;5.10;99.90;;;;;;5131380;28;20539;-80
2022/02/02 03:00:38;;;;;;;0.30;0.30;;;5.20;99.90;;;;;;5131497;27;20533;-80
2022/02/02 03:13:49;;;;;;;1.30;1.20;;;5.10;99.90;;;;;;5131419;27;20570;-80
2022/02/02 03:30:53;;;;;;;0.30;0.20;;;5.20;99.90;;;;;;5130959;28;20403;-80
2022/02/02 03:50:19;;;;;;;0.30;0.20;;;5.30;99.90;;;;;;5116828;28;21016;-80
2022/02/02 03:55:37;;;;;;;0.30;0.30;;;5.30;99.90;;;;;;5116370;28;20447;-80
2022/02/02 03:58:22;;;;;;;0.30;0.20;;;5.30;99.90;;;;;;5116669;28;20489;-80
2022/02/02 04:03:47;;;;;;;0.30;0.30;;;5.30;99.90;;;;;;5116236;28;20949;-80
2022/02/02 04:06:19;;;;;;;0.30;0.20;;;5.30;99.90;;;;;;5116059;28;20981;-78
2022/02/02 04:08:47;;;;;;;1.47;0.87;;;5.20;99.90;;;;;;5116206;28;20473;-78
2022/02/02 04:11:18;;;;;;;0.30;0.20;;;5.20;99.90;;;;;;5116093;28;20486;-80
2022/02/02 04:39:00;;;;;;;0.30;0.30;;;5.10;99.90;;;;;;5115699;28;20403;-80
2022/02/02 04:52:56;;;;;;;0.30;0.30;;;5.10;99.90;;;;;;5115360;28;20445;-80
2022/02/02 04:55:31;;;;;;;0.30;0.20;;;5.10;99.90;;;;;;5115081;28;20538;-78
2022/02/02 04:58:13;;;;;;;0.30;0.20;;;5.20;99.90;;;;;;5115199;28;20431;-78
2022/02/02 05:03:44;;;;;;;0.40;0.40;;;5.30;99.90;;;;;;5093931;28;20425;-80
2022/02/02 05:06:19;;;;;;;0.30;0.20;;;5.30;99.90;;;;;;5115173;28;20555;-81
2022/02/02 05:08:54;;;;;;;0.30;0.30;;;5.20;99.90;;;;;;5115028;28;20850;-81
2022/02/02 05:11:38;;;;;;;0.30;0.20;;;5.10;99.90;;;;;;5115348;28;20438;-81
2022/02/02 05:17:10;;;;;;;0.30;0.30;;;5.10;99.90;;;;;;5115080;28;20454;-81
2022/02/02 05:50:11;;;;;;;0.30;0.20;;;4.80;99.90;;;;;;5114558;28;20759;-78
2022/02/02 05:52:38;;;;;;;0.30;0.20;;;4.80;99.90;;;;;;5114192;28;20432;-78
2022/02/02 05:55:07;;;;;;;0.30;0.20;;;4.80;99.90;;;;;;5114296;28;20791;-78
2022/02/02 05:57:40;;;;;;;0.30;0.20;;;4.90;99.90;;;;;;5114369;28;20505;-80
2022/02/02 06:00:08;;;;;;;0.30;0.20;;;4.90;99.90;;;;;;5114380;28;20434;-80
2022/02/02 06:02:38;;;;;;;0.30;0.30;;;5.00;99.90;;;;;;5114278;28;20443;-78
2022/02/02 06:05:08;;;;;;;0.30;0.20;;;5.10;99.90;;;;;;5114161;28;20443;-78
2022/02/02 06:07:36;;;;;;;0.30;0.30;;;5.20;99.90;;;;;;5114106;28;20571;-78
2022/02/02 06:10:04;;;;;;;0.30;0.30;;;5.20;99.90;;;;;;5113812;28;20941;-80
2022/02/02 06:12:33;;;;;;;0.30;0.30;;;5.20;99.90;;;;;;5113861;28;20439;-81
2022/02/02 06:15:07;;;;;;;0.30;0.30;;;5.20;99.90;;;;;;5114021;28;20446;-81
2022/02/02 06:17:39;;;;;;;0.30;0.20;;;5.20;99.90;;;;;;5114107;28;20443;-80
2022/02/02 06:20:07;;;;;;;0.30;0.20;;;5.30;99.90;;;;;;5114136;28;20431;-80
2022/02/02 06:22:40;;;;;;;0.30;0.20;;;5.30;99.90;;;;;;5113692;28;20973;-79
2022/02/02 06:25:17;;;;;;;0.30;0.20;;;5.30;99.90;;;;;;5113628;28;20439;-78
2022/02/02 06:27:51;;;;;;;0.30;0.27;;;5.20;99.90;;;;;;5113885;28;20467;-80
2022/02/02 06:30:19;;;;;;;0.30;0.30;;;5.20;99.90;;;;;;5115543;28;20428;-81
2022/02/02 06:32:48;;;;;;;0.30;0.20;;;5.30;99.90;;;;;;5113979;28;20451;-80
2022/02/02 06:35:15;;;;;;;1.80;0.40;;;5.30;99.90;;;;;;5113488;28;20965;-81
2022/02/02 06:37:43;;;;;;;0.30;0.20;;;5.30;99.90;;;;;;5113454;28;20467;-79
2022/02/02 06:40:10;;;;;;;0.30;0.20;;;5.30;99.90;;;;;;5113853;28;20447;-81
2022/02/02 06:42:37;;;;;;;0.97;0.83;;;5.30;99.90;;;;;;5113513;28;20440;-81
2022/02/02 06:45:07;;;;;;;0.40;0.40;;;5.40;99.90;;;;;;5113378;28;20829;-80
2022/02/02 06:47:35;;;;;;;0.30;0.20;;;5.40;99.90;;;;;;5113686;28;20486;-80
2022/02/02 06:50:08;;;;;;;0.60;0.43;;;5.40;99.90;;;;;;5113712;28;20442;-80
2022/02/02 06:52:43;;;;;;;0.30;0.30;;;5.50;99.90;;;;;;5113766;28;20467;-79
2022/02/02 06:55:22;;;;;;;0.30;0.30;;;5.50;99.90;;;;;;5113618;28;20526;-79
2022/02/02 06:58:08;;;;;;;0.30;0.30;;;5.40;99.90;;;;;;5113723;28;20431;-79
2022/02/02 07:00:51;;;;;;;0.30;0.20;;;5.40;99.90;;;;;;5113691;28;20434;-79
2022/02/02 07:03:29;;;;;;;0.30;0.30;;;5.40;99.90;;;;;;5113717;28;20427;-79
2022/02/02 07:06:09;;;;;;;0.40;0.30;;;5.40;99.90;;;;;;5113547;28;20475;-79
2022/02/02 07:08:50;;;;;;;0.83;0.83;;;5.50;99.90;;;;;;5113228;28;20981;-79
2022/02/02 07:11:30;;;;;;;0.30;0.20;;;5.50;99.90;;;;;;5113613;28;20876;-79
2022/02/02 07:14:09;;;;;;;0.30;0.30;;;5.50;99.90;;;;;;5113595;28;20476;-79
2022/02/02 07:16:42;;;;;;;0.30;0.20;;;5.50;99.90;;;;;;5113416;28;20807;-79
2022/02/02 07:19:18;;;;;;;0.40;0.30;;;5.50;99.90;;;;;;5113501;28;20442;-78
2022/02/02 07:24:54;;;;;;;0.63;0.40;;;5.40;99.90;;;;;;5107235;28;20423;-79
2022/02/02 07:27:41;;;;;;;0.30;0.20;;;5.50;99.90;;;;;;5117193;28;20898;-79
2022/02/02 07:30:22;;;;;;;0.30;0.27;;;5.60;99.90;;;;;;5117276;28;20514;-79
2022/02/02 07:33:07;;;;;;;0.30;0.20;;;5.70;99.90;;;;;;5116886;28;20907;-79
2022/02/02 07:35:50;;;;;;;0.30;0.30;;;5.60;99.90;;;;;;5117064;28;20523;-78
2022/02/02 07:38:20;;;;;;;0.30;0.30;;;5.60;99.90;;;;;;5116818;28;20476;-79
2022/02/02 07:40:49;;;;;;;0.30;0.30;;;5.70;99.90;;;;;;5116748;27;20518;-79
2022/02/02 07:43:21;;;;;;;0.30;0.20;;;5.70;99.90;;;;;;5116972;28;20520;-79
2022/02/02 07:45:58;;;;;;;0.30;0.30;;;5.80;99.90;;;;;;5116870;28;20467;-79
2022/02/02 07:48:26;;;;;;;0.70;0.70;;;5.90;99.90;;;;;;5116526;28;20462;-79
2022/02/02 07:50:56;;;;;;;0.30;0.20;;;5.90;99.90;;;;;;5116748;28;20438;-79
2022/02/02 07:53:33;;;;;;;0.30;0.20;;;6.00;99.90;;;;;;5116511;28;20474;-79
2022/02/02 07:56:02;;;;;;;0.50;0.50;;;6.00;99.90;;;;;;5116724;28;20863;-79
2022/02/02 07:58:28;;;;;;;0.30;0.20;;;6.00;99.90;;;;;;5116378;28;20942;-79
2022/02/02 08:00:56;;;;;;;0.37;0.37;;;5.90;99.90;;;;;;5116592;28;20451;-79
2022/02/02 08:03:25;;;;;;;0.40;0.40;;;5.90;99.90;;;;;;5116557;28;20456;-79
2022/02/02 08:05:53;;;;;;;0.30;0.20;;;6.10;99.90;;;;;;5116463;28;20466;-79
2022/02/02 08:08:30;;;;;;;0.67;0.67;;;6.10;99.90;;;;;;5116380;28;20574;-79
2022/02/02 08:10:59;;;;;;;0.67;0.67;;;6.00;99.90;;;;;;5116492;28;20439;-79
2022/02/02 08:13:37;;;;;;;0.30;0.20;;;6.10;99.90;;;;;;5116081;28;20946;-79
2022/02/02 08:16:07;;;;;;;0.30;0.30;;;6.10;99.90;;;;;;5116284;28;20528;-79
2022/02/02 08:18:34;;;;;;;0.30;0.20;;;6.20;99.90;;;;;;5115947;28;20534;-79
2022/02/02 08:21:02;;;;;;;0.90;0.90;;;6.10;99.90;;;;;;5115911;28;20447;-79
2022/02/02 08:23:28;;;;;;;0.30;0.30;;;6.10;99.90;;;;;;5116169;28;20458;-79
2022/02/02 08:25:57;;;;;;;0.30;0.20;;;6.10;99.90;;;;;;5116071;28;20490;-79
2022/02/02 08:28:24;;;;;;;0.30;0.20;;;6.10;99.90;;;;;;5116011;28;20522;-79
2022/02/02 08:30:51;;;;;;;0.30;0.30;;;6.20;99.90;;;;;;5115838;28;20644;-79
2022/02/02 08:33:22;;;;;;;0.30;0.30;;;6.20;99.90;;;;;;5115678;28;20953;-79
2022/02/02 08:35:53;;;;;;;0.30;0.20;;;6.20;99.90;;;;;;5115438;28;20552;-79
2022/02/02 08:38:35;;;;;;;0.30;0.20;;;6.30;99.90;;;;;;5115926;28;20794;-79
2022/02/02 08:41:07;;;;;;;0.40;0.40;;;6.30;99.90;;;;;;5115869;28;20484;-79
2022/02/02 08:43:39;;;;;;;0.30;0.30;;;6.40;99.90;;;;;;5115812;28;20435;-79
2022/02/02 08:46:09;;;;;;;0.30;0.20;;;6.60;99.90;;;;;;5115406;28;20962;-79
2022/02/02 08:48:40;;;;;;;0.30;0.20;;;6.60;99.90;;;;;;5115349;28;20981;-79
2022/02/02 08:51:10;;;;;;;0.30;0.30;;;6.70;99.90;;;;;;5116513;27;20439;-79
2022/02/02 08:53:49;;;;;;;0.30;0.20;;;6.80;99.90;;;;;;5115652;28;20477;-79
2022/02/02 08:56:36;;;;;;;0.30;0.20;;;6.90;99.90;;;;;;5115520;28;20504;-79
2022/02/02 08:59:08;;;;;;;0.30;0.20;;;6.90;99.90;;;;;;5115536;28;20526;-79
2022/02/02 09:01:37;;;;;;;0.30;0.30;;;6.80;99.90;;;;;;5115170;28;20441;-79
2022/02/02 09:06:48;;;;;;;0.30;0.20;;;6.90;99.90;;;;;;5115126;28;20555;-81
2022/02/02 09:09:19;;;;;;;0.30;0.20;;;6.90;99.90;;;;;;5115152;28;20479;-81
2022/02/02 09:20:19;;;;;;;0.30;0.20;;;7.00;99.90;;;;;;5115217;28;20421;-82
2022/02/02 09:25:35;;;;;;;0.87;0.30;;;6.90;99.90;;;;;;5114980;28;20442;-81
2022/02/02 09:33:54;;;;;;;0.30;0.20;;;6.90;99.90;;;;;;5114695;28;20533;-84
2022/02/02 09:36:24;;;;;;;0.30;0.30;;;6.90;99.90;;;;;;5114477;28;20985;-81
2022/02/02 09:38:52;;;;;;;0.30;0.20;;;7.00;99.90;;;;;;5114701;28;20450;-81
2022/02/02 09:41:38;;;;;;;0.30;0.20;;;7.10;99.90;;;;;;5114644;27;20454;-81
2022/02/02 09:44:08;;;;;;;0.30;0.20;;;7.20;99.90;;;;;;5114689;28;20548;-81
2022/02/02 09:46:43;;;;;;;0.40;0.30;;;7.20;99.90;;;;;;5113650;28;20478;-81
2022/02/02 09:49:16;;;;;;;0.30;0.20;;;7.30;99.90;;;;;;5114759;28;20891;-80
2022/02/02 09:51:47;;;;;;;0.30;0.30;;;7.40;99.90;;;;;;5114169;28;20904;-80
2022/02/02 09:54:20;;;;;;;0.30;0.20;;;7.50;99.90;;;;;;5114205;28;20488;-80
2022/02/02 09:57:27;;;;;;;0.30;0.20;;;7.60;99.90;;;;;;5113980;28;20459;-80
2022/02/02 10:05:59;;;;;;;0.33;0.33;;;7.90;99.90;;;;;;5071249;28;20456;-80
2022/02/02 10:14:16;;;;;;;0.30;0.20;;;8.00;99.90;;;;;;5113938;28;20430;-80
2022/02/02 10:16:44;;;;;;;0.30;0.30;;;7.80;99.90;;;;;;5113738;28;20977;-80
2022/02/02 10:19:15;;;;;;;0.30;0.20;;;7.80;99.90;;;;;;5114035;28;20444;-80
2022/02/02 10:21:42;;;;;;;0.30;0.20;;;7.80;99.90;;;;;;5113879;28;20439;-80
2022/02/02 10:24:09;;;;;;;2.00;1.30;;;8.00;99.90;;;;;;5114019;28;20446;-81
2022/02/02 10:26:44;;;;;;;2.20;0.40;;;8.20;99.90;;;;;;5113902;28;20470;-81
2022/02/02 10:29:15;;;;;;;0.30;0.20;;;8.40;99.90;;;;;;5113729;28;20496;-82
2022/02/02 10:31:44;;;;;;;0.40;0.40;;;8.50;99.90;;;;;;5113855;28;20438;-82
2022/02/02 10:34:13;;;;;;;0.50;0.40;;;8.70;99.90;;;;;;5113966;28;20525;-87
2022/02/02 10:36:40;;;;;;;0.30;0.20;;;8.80;99.90;;;;;;5113488;28;20497;-81
2022/02/02 10:39:10;;;;;;;0.40;0.30;;;8.90;99.90;;;;;;5113845;28;20483;-81
2022/02/02 10:41:45;;;;;;;0.30;0.30;;;9.00;99.90;;;;;;5113574;28;20974;-81
2022/02/02 10:44:23;;;;;;;0.30;0.20;;;9.10;99.90;;;;;;5113530;28;20446;-81
2022/02/02 10:46:58;;;;;;;0.30;0.30;;;9.30;99.90;;;;;;5113797;28;20502;-81
2022/02/02 10:49:34;;;;;;;0.30;0.23;;;9.40;99.90;;;;;;5113725;28;20490;-80
2022/02/02 10:52:06;;;;;;;0.30;0.20;;;9.50;99.90;;;;;;5113781;28;20431;-80
2022/02/02 10:54:41;;;;;;;0.40;0.30;;;9.50;99.90;;;;;;5113714;28;20807;-80
2022/02/02 10:57:15;;;;;;;0.30;0.30;;;9.50;99.90;;;;;;5113698;28;20898;-80
2022/02/02 11:00:01;;;;;;;0.30;0.30;;;9.40;99.90;;;;;;5116958;28;20919;-80
2022/02/02 11:07:59;;;;;;;0.40;0.30;;;9.40;99.90;;;;;;5115483;28;20446;-80
2022/02/02 11:10:27;;;;;;;0.67;0.67;;;9.40;99.90;;;;;;5117622;28;20430;-80
2022/02/02 11:12:56;;;;;;;0.30;0.20;;;9.60;99.90;;;;;;5117592;28;20427;-80
2022/02/02 11:15:31;;;;;;;0.30;0.27;;;9.70;99.90;;;;;;5117203;28;20985;-80
2022/02/02 11:18:11;;;;;;;0.30;0.20;;;9.70;99.90;;;;;;5117517;27;20431;-80
2022/02/02 11:20:38;;;;;;;0.40;0.37;;;9.90;99.90;;;;;;5117092;28;20915;-80
2022/02/02 11:23:07;;;;;;;0.30;0.20;;;10.20;99.90;;;;;;5117111;28;20913;-80
2022/02/02 11:25:50;;;;;;;4.07;0.50;;;10.40;99.90;;;;;;5116954;28;20463;-80
2022/02/02 11:28:32;;;;;;;0.83;0.30;;;10.50;99.90;;;;;;5117238;28;20483;-80
2022/02/02 11:31:16;;;;;;;0.30;0.20;;;10.50;99.90;;;;;;5117813;28;20439;-80
2022/02/02 11:33:48;;;;;;;0.30;0.30;;;10.50;99.90;;;;;;5116848;28;20918;-80
2022/02/02 11:36:26;;;;;;;0.30;0.30;;;10.40;99.90;;;;;;5116726;28;20482;-80
2022/02/02 11:38:55;;;;;;;0.40;0.40;;;10.30;99.90;;;;;;5117103;28;20510;-80
2022/02/02 11:44:24;;;;;;;0.40;0.40;;;10.00;99.90;;;;;;5116981;28;20423;-80
2022/02/02 11:47:05;;;;;;;0.30;0.30;;;9.90;99.90;;;;;;5116875;28;20519;-80
2022/02/02 11:49:46;;;;;;;0.40;0.30;;;10.10;99.90;;;;;;5116828;28;20467;-80
2022/02/02 11:52:35;;;;;;;0.40;0.30;;;10.20;99.90;;;;;;5116529;28;20431;-80
2022/02/02 11:55:02;;;;;;;0.30;0.20;;;10.30;99.90;;;;;;5116479;28;20936;-80
2022/02/02 11:57:34;;;;;;;0.30;0.30;;;10.10;99.90;;;;;;5116488;28;20432;-80
2022/02/02 12:00:14;;;;;;;0.57;0.40;;;9.70;99.90;;;;;;5116404;28;20941;-80
2022/02/02 12:03:08;;;;;;;0.30;0.20;;;9.30;99.90;;;;;;5116647;28;20773;-80
2022/02/02 12:05:53;;;;;;;0.30;0.20;;;9.10;99.90;;;;;;5116551;28;20506;-80
2022/02/02 12:08:33;;;;;;;0.30;0.30;;;9.00;99.90;;;;;;5116356;28;20463;-80
2022/02/02 12:47:55;;;;;;;0.40;0.30;;;8.70;99.90;;;;;;5113571;28;20431;-80
2022/02/02 13:02:09;;;;;;;0.30;0.30;;;8.90;99.90;;;;;;5115540;28;20421;-80
2022/02/02 13:04:38;;;;;;;0.40;0.30;;;9.00;99.90;;;;;;5115419;28;20443;-80
2022/02/02 13:07:10;;;;;;;0.37;0.30;;;9.10;99.90;;;;;;5115297;28;20458;-80
2022/02/02 13:09:39;;;;;;;0.40;0.30;;;9.10;99.90;;;;;;5115208;28;20486;-80
2022/02/02 13:12:23;;;;;;;2.50;0.53;;;9.10;99.90;;;;;;5115075;28;20961;-81
2022/02/02 13:15:11;;;;;;;0.30;0.30;;;9.10;99.90;;;;;;5115333;28;20447;-81
2022/02/02 13:17:45;;;;;;;0.40;0.40;;;9.00;99.90;;;;;;5115152;28;20442;-81
2022/02/02 13:20:15;;;;;;;0.30;0.20;;;8.90;99.90;;;;;;5114745;28;20434;-81
2022/02/02 13:22:47;;;;;;;1.37;0.50;;;8.90;99.90;;;;;;5114647;28;20846;-81
2022/02/02 13:25:29;;;;;;;0.30;0.30;;;8.90;99.90;;;;;;5114688;28;20808;-81
2022/02/02 13:27:58;;;;;;;0.30;0.30;;;9.00;99.90;;;;;;5114957;28;20465;-81
2022/02/02 13:30:35;;;;;;;0.30;0.30;;;9.10;99.90;;;;;;5114858;28;20479;-81
2022/02/02 13:33:18;;;;;;;0.30;0.20;;;9.00;99.90;;;;;;5114593;28;20473;-82
2022/02/02 13:35:57;;;;;;;0.30;0.30;;;9.00;99.90;;;;;;5114586;28;20466;-81
2022/02/02 13:38:42;;;;;;;2.83;0.30;;;8.90;99.90;;;;;;5114796;28;20529;-81
2022/02/02 13:44:19;;;;;;;0.30;0.30;;;8.80;99.90;;;;;;5114690;28;20422;-81
2022/02/02 13:47:03;;;;;;;0.30;0.30;;;8.70;99.90;;;;;;5114210;28;20999;-81
2022/02/02 13:49:45;;;;;;;0.30;0.30;;;8.80;99.90;;;;;;5114478;28;20551;-81
2022/02/02 13:52:33;;;;;;;0.40;0.30;;;8.90;99.90;;;;;;5114134;28;20910;-81
2022/02/02 13:55:29;;;;;;;0.60;0.30;;;9.00;99.90;;;;;;5114515;28;20455;-81
2022/02/02 13:58:31;;;;;;;0.40;0.30;;;9.00;99.90;;;;;;5114035;28;20862;-81
2022/02/02 14:01:04;;;;;;;0.30;0.20;;;9.00;99.90;;;;;;5114280;28;20454;-81
2022/02/02 14:03:56;;;;;;;2.10;1.13;;;9.00;99.90;;;;;;5114229;28;20432;-81
2022/02/02 14:06:37;;;;;;;0.30;0.30;;;9.00;99.90;;;;;;5114159;28;20561;-81
2022/02/02 14:09:07;;;;;;;0.30;0.30;;;8.90;99.90;;;;;;5114215;28;20470;-81
2022/02/02 14:25:37;;;;;;;0.30;0.30;;;8.90;99.90;;;;;;5113913;28;20963;-80
2022/02/02 14:26:05;;;;;;;0.30;0.30;;;8.90;99.90;;;;;;5113976;28;20470;-81
2022/02/02 14:31:14;;;;;;;0.30;0.30;;;8.70;99.90;;;;;;5113966;28;20411;-81
2022/02/02 14:33:42;;;;;;;0.40;0.40;;;8.70;99.90;;;;;;5114288;28;20455;-81
2022/02/02 14:36:11;;;;;;;0.70;0.30;;;8.60;99.90;;;;;;5113243;28;20489;-81
2022/02/02 14:38:44;;;;;;;0.97;0.40;;;8.50;99.90;;;;;;5113802;28;20498;-81
2022/02/02 14:41:20;;;;;;;0.30;0.20;;;8.40;99.90;;;;;;5113848;28;20431;-81
2022/02/02 14:43:55;;;;;;;0.70;0.30;;;8.40;99.90;;;;;;5113514;28;20431;-80
2022/02/02 14:46:30;;;;;;;0.30;0.30;;;8.40;99.90;;;;;;5113399;28;20466;-80
2022/02/02 14:49:03;;;;;;;0.30;0.30;;;8.30;99.90;;;;;;5113657;28;20474;-81
2022/02/02 14:51:39;;;;;;;0.30;0.30;;;8.40;99.90;;;;;;5113695;28;20488;-81
2022/02/02 14:54:16;;;;;;;0.30;0.30;;;8.40;99.90;;;;;;5113641;28;20438;-81
2022/02/02 15:05:21;;;;;;;0.30;0.30;;;8.30;99.90;;;;;;5113592;28;20502;-81
2022/02/02 15:05:35;;;;;;;0.30;0.20;;;8.20;99.90;;;;;;5113408;28;20407;-81
2022/02/02 15:27:21;;;;;;;1.17;0.40;;;7.90;99.90;;;;;;5112982;28;20455;-80
2022/02/02 15:29:58;;;;;;;0.30;0.30;;;7.90;99.90;;;;;;5112987;28;21029;-80
2022/02/02 15:32:26;;;;;;;0.30;0.30;;;7.80;99.90;;;;;;5113385;28;20513;-80
2022/02/02 15:34:58;;;;;;;0.30;0.20;;;7.80;99.90;;;;;;5113062;28;20449;-80
2022/02/02 15:37:29;;;;;;;0.30;0.30;;;7.70;99.90;;;;;;5112786;28;20490;-80
2022/02/02 15:40:06;;;;;;;0.30;0.30;;;7.70;99.90;;;;;;5113580;28;20419;-80
2022/02/02 15:42:48;;;;;;;0.50;0.30;;;7.60;99.90;;;;;;5113266;28;20435;-80
2022/02/02 15:59:16;;;;;;;0.40;0.30;;;7.10;99.90;;;;;;5116804;28;20425;-79
2022/02/02 16:02:07;;;;;;;0.30;0.20;;;7.00;99.90;;;;;;5116991;28;20493;-79
2022/02/02 16:04:36;;;;;;;0.30;0.20;;;7.00;99.90;;;;;;5116338;28;21009;-79
2022/02/02 16:07:06;;;;;;;0.30;0.30;;;6.90;99.90;;;;;;5116561;28;20531;-79
2022/02/02 16:09:43;;;;;;;0.30;0.20;;;6.90;99.90;;;;;;5116677;28;20463;-79
2022/02/02 16:12:16;;;;;;;0.30;0.30;;;6.90;99.90;;;;;;5116279;28;20910;-79
2022/02/02 16:14:45;;;;;;;0.30;0.20;;;6.90;99.90;;;;;;5116461;28;20432;-79
2022/02/02 16:17:22;;;;;;;0.30;0.20;;;6.90;99.90;;;;;;5116367;28;20482;-79
2022/02/02 16:36:18;;;;;;;0.30;0.20;;;6.90;99.90;;;;;;5115819;28;20500;-80
2022/02/02 16:38:57;;;;;;;0.30;0.30;;;7.00;99.90;;;;;;5116030;28;20488;-80
2022/02/02 16:44:08;;;;;;;0.30;0.30;;;6.90;99.90;;;;;;5115929;28;20445;-80
2022/02/02 16:46:35;;;;;;;0.30;0.20;;;6.90;99.90;;;;;;5115786;28;20550;-80
2022/02/02 16:49:01;;;;;;;0.30;0.20;;;6.90;99.90;;;;;;5115731;28;20428;-80
2022/02/02 16:51:28;;;;;;;0.30;0.20;;;6.90;99.90;;;;;;5117497;28;20434;-79
2022/02/02 16:53:59;;;;;;;0.30;0.30;;;6.90;99.90;;;;;;5116687;28;20435;-79
2022/02/02 16:56:36;;;;;;;0.30;0.30;;;6.90;99.90;;;;;;5115785;28;20536;-79
2022/02/02 17:32:33;;;;;;;0.30;0.30;;;6.80;99.90;;;;;;5114970;28;20460;-80
2022/02/02 17:35:17;;;;;;;0.30;0.30;;;6.80;99.90;;;;;;5114874;28;20442;-80
2022/02/02 17:37:51;;;;;;;0.30;0.30;;;6.80;99.90;;;;;;5114327;28;20485;-79
2022/02/02 17:40:33;;;;;;;0.30;0.27;;;6.70;99.90;;;;;;5114480;28;20921;-81
2022/02/02 17:43:16;;;;;;;0.40;0.30;;;6.70;99.90;;;;;;5114633;28;20480;-80
2022/02/02 17:45:52;;;;;;;0.60;0.57;;;6.60;99.90;;;;;;5114648;28;20462;-80
2022/02/02 17:57:28;;;;;;;0.30;0.20;;;6.40;99.90;;;;;;5075482;28;20500;-80
2022/02/02 18:18:59;;;;;;;0.50;0.50;;;6.50;99.90;;;;;;5110327;28;20435;-79
2022/02/02 18:21:28;;;;;;;0.33;0.30;;;6.40;99.90;;;;;;5114651;28;20530;-79
2022/02/02 18:24:01;;;;;;;0.30;0.30;;;6.40;99.90;;;;;;5114791;28;21004;-79
2022/02/02 18:26:33;;;;;;;0.30;0.30;;;6.40;99.90;;;;;;5114916;28;20824;-79
2022/02/02 18:29:05;;;;;;;0.30;0.20;;;6.30;99.90;;;;;;5114835;28;20428;-79
2022/02/02 18:34:29;;;;;;;0.30;0.30;;;6.10;99.90;;;;;;5107260;28;20453;-79
2022/02/02 18:37:12;;;;;;;0.40;0.40;;;6.00;99.90;;;;;;5114939;28;20513;-79
2022/02/02 18:48:28;;;;;;;0.30;0.20;;;5.70;99.90;;;;;;5050669;28;20840;-81
2022/02/02 18:51:13;;;;;;;0.30;0.20;;;5.70;99.90;;;;;;5100786;28;20540;-81
2022/02/02 18:53:51;;;;;;;0.30;0.20;;;5.70;99.90;;;;;;5115133;28;20484;-81
2022/02/02 18:56:34;;;;;;;0.30;0.20;;;5.70;99.90;;;;;;5114447;28;20470;-80
2022/02/02 18:59:12;;;;;;;0.30;0.30;;;5.80;99.90;;;;;;5113589;28;20470;-81
2022/02/02 19:01:46;;;;;;;0.30;0.30;;;5.80;99.90;;;;;;5113790;28;20423;-81
2022/02/02 19:04:51;;;;;;;0.40;0.30;;;5.80;99.90;;;;;;5113387;28;20481;-81
2022/02/02 19:37:44;;;;;;;0.30;0.20;;;5.80;99.90;;;;;;5116754;28;20504;-81
2022/02/02 19:40:16;;;;;;;0.30;0.20;;;5.90;99.90;;;;;;5117661;28;20879;-81
2022/02/02 19:56:59;;;;;;;0.40;0.30;;;5.90;99.90;;;;;;5116756;28;20450;-81
2022/02/02 20:05:20;;;;;;;0.30;0.20;;;5.80;99.90;;;;;;5116007;28;20540;-81
2022/02/02 20:08:03;;;;;;;0.30;0.30;;;5.80;99.90;;;;;;5116384;28;20475;-81
2022/02/02 20:10:39;;;;;;;0.30;0.30;;;5.80;99.90;;;;;;5116258;28;20558;-81
2022/02/02 20:13:06;;;;;;;0.40;0.40;;;5.80;99.90;;;;;;5116706;27;20439;-81
2022/02/02 20:15:38;;;;;;;0.63;0.63;;;5.80;99.90;;;;;;5116609;28;20808;-81
2022/02/02 20:18:06;;;;;;;0.30;0.30;;;5.80;99.90;;;;;;5116319;28;20427;-81
2022/02/02 20:20:37;;;;;;;0.30;0.20;;;5.80;99.90;;;;;;5116531;28;20447;-81
2022/02/02 20:23:05;;;;;;;0.30;0.30;;;5.80;99.90;;;;;;5116456;28;20439;-81
2022/02/02 20:25:35;;;;;;;0.40;0.40;;;5.80;99.90;;;;;;5115963;28;20859;-81
2022/02/02 20:28:05;;;;;;;0.30;0.30;;;5.90;99.90;;;;;;5116128;28;20789;-81
2022/02/02 20:30:33;;;;;;;0.30;0.30;;;5.90;99.90;;;;;;5115788;27;20566;-81
2022/02/02 20:32:59;;;;;;;0.30;0.30;;;5.90;99.90;;;;;;5116138;28;20443;-80
2022/02/02 20:35:27;;;;;;;0.30;0.20;;;5.90;99.90;;;;;;5116018;28;20494;-81
2022/02/02 20:37:53;;;;;;;0.30;0.20;;;5.90;99.90;;;;;;5115564;28;20981;-81
2022/02/02 20:40:21;;;;;;;0.60;0.37;;;5.90;99.90;;;;;;5115697;28;20933;-81
2022/02/02 20:42:57;;;;;;;0.30;0.30;;;6.00;99.90;;;;;;5115976;28;20569;-81
2022/02/02 21:04:51;;;;;;;0.30;0.30;;;6.00;99.90;;;;;;5115549;28;20407;-80
2022/02/02 21:07:29;;;;;;;0.30;0.27;;;6.00;99.90;;;;;;5115574;28;20458;-81
2022/02/02 21:10:03;;;;;;;0.30;0.20;;;6.00;99.90;;;;;;5115480;28;20427;-81
2022/02/02 21:15:23;;;;;;;0.30;0.20;;;5.90;99.90;;;;;;5115058;28;20423;-80
2022/02/02 21:17:51;;;;;;;0.30;0.30;;;5.90;99.90;;;;;;5115434;28;20427;-80